sensor_id;sensor_type;location;lat;lon;timestamp;temperature;humidity
69084;SHT31;56185;48.526;9.044;2023-02-28T00:00:20;-0.32;59.05
69084;SHT31;56185;48.526;9.044;2023-02-28T00:02:45;-0.34;59.42
69084;SHT31;56185;48.526;9.044;2023-02-28T00:05:12;-0.30;58.99
69084;SHT31;56185;48.526;9.044;2023-02-28T00:07:38;-0.32;59.11
69084;SHT31;56185;48.526;9.044;2023-02-28T00:10:05;-0.42;59.64
69084;SHT31;56185;48.526;9.044;2023-02-28T00:12:30;-0.37;59.19
69084;SHT31;56185;48.526;9.044;2023-02-28T00:14:56;-0.45;60.05
69084;SHT31;56185;48.526;9.044;2023-02-28T00:17:21;-0.38;59.75
69084;SHT31;56185;48.526;9.044;2023-02-28T00:19:48;-0.41;59.41
69084;SHT31;56185;48.526;9.044;2023-02-28T00:22:13;-0.35;59.82
69084;SHT31;56185;48.526;9.044;2023-02-28T00:24:39;-0.44;60.12
69084;SHT31;56185;48.526;9.044;2023-02-28T00:27:04;-0.48;59.94
69084;SHT31;56185;48.526;9.044;2023-02-28T00:29:29;-0.57;60.77
69084;SHT31;56185;48.526;9.044;2023-02-28T00:31:54;-0.51;60.16
69084;SHT31;56185;48.526;9.044;2023-02-28T00:34:20;-0.52;60.43
69084;SHT31;56185;48.526;9.044;2023-02-28T00:36:45;-0.48;60.41
69084;SHT31;56185;48.526;9.044;2023-02-28T00:39:11;-0.51;60.13
69084;SHT31;56185;48.526;9.044;2023-02-28T00:41:36;-0.48;60.64
69084;SHT31;56185;48.526;9.044;2023-02-28T00:44:01;-0.44;60.13
69084;SHT31;56185;48.526;9.044;2023-02-28T00:46:26;-0.34;60.16
69084;SHT31;56185;48.526;9.044;2023-02-28T00:48:52;-0.57;60.27
69084;SHT31;56185;48.526;9.044;2023-02-28T00:51:17;-0.55;60.54
69084;SHT31;56185;48.526;9.044;2023-02-28T00:53:42;-0.48;60.11
69084;SHT31;56185;48.526;9.044;2023-02-28T00:56:07;-0.52;60.40
69084;SHT31;56185;48.526;9.044;2023-02-28T00:58:32;-0.40;60.18
69084;SHT31;56185;48.526;9.044;2023-02-28T01:00:58;-0.51;60.56
69084;SHT31;56185;48.526;9.044;2023-02-28T01:03:23;-0.52;60.33
69084;SHT31;56185;48.526;9.044;2023-02-28T01:05:48;-0.51;60.43
69084;SHT31;56185;48.526;9.044;2023-02-28T01:08:14;-0.51;60.41
69084;SHT31;56185;48.526;9.044;2023-02-28T01:10:39;-0.58;60.72
69084;SHT31;56185;48.526;9.044;2023-02-28T01:13:05;-0.54;60.78
69084;SHT31;56185;48.526;9.044;2023-02-28T01:15:30;-0.48;60.73
69084;SHT31;56185;48.526;9.044;2023-02-28T01:17:56;-0.60;60.93
69084;SHT31;56185;48.526;9.044;2023-02-28T01:20:21;-0.55;60.94
69084;SHT31;56185;48.526;9.044;2023-02-28T01:22:46;-0.60;61.05
69084;SHT31;56185;48.526;9.044;2023-02-28T01:25:12;-0.72;61.55
69084;SHT31;56185;48.526;9.044;2023-02-28T01:27:37;-0.68;61.83
69084;SHT31;56185;48.526;9.044;2023-02-28T01:30:02;-0.64;61.92
69084;SHT31;56185;48.526;9.044;2023-02-28T01:32:28;-0.54;61.16
69084;SHT31;56185;48.526;9.044;2023-02-28T01:34:53;-0.57;62.02
69084;SHT31;56185;48.526;9.044;2023-02-28T01:37:19;-0.60;61.37
69084;SHT31;56185;48.526;9.044;2023-02-28T01:39:44;-0.55;61.37
69084;SHT31;56185;48.526;9.044;2023-02-28T01:42:12;-0.60;61.47
69084;SHT31;56185;48.526;9.044;2023-02-28T01:45:03;-0.65;62.36
69084;SHT31;56185;48.526;9.044;2023-02-28T01:47:35;-0.66;61.84
69084;SHT31;56185;48.526;9.044;2023-02-28T01:50:04;-0.61;61.56
69084;SHT31;56185;48.526;9.044;2023-02-28T01:52:31;-0.58;62.03
69084;SHT31;56185;48.526;9.044;2023-02-28T01:54:59;-0.51;61.50
69084;SHT31;56185;48.526;9.044;2023-02-28T01:57:29;-0.61;61.66
69084;SHT31;56185;48.526;9.044;2023-02-28T02:00:00;-0.58;61.92
69084;SHT31;56185;48.526;9.044;2023-02-28T02:02:27;-0.64;62.35
69084;SHT31;56185;48.526;9.044;2023-02-28T02:05:00;-0.61;62.57
69084;SHT31;56185;48.526;9.044;2023-02-28T02:07:29;-0.64;62.33
69084;SHT31;56185;48.526;9.044;2023-02-28T02:10:14;-0.60;62.70
69084;SHT31;56185;48.526;9.044;2023-02-28T02:21:18;-0.66;63.37
69084;SHT31;56185;48.526;9.044;2023-02-28T02:37:48;-0.78;64.03
69084;SHT31;56185;48.526;9.044;2023-02-28T02:40:19;-0.82;64.94
69084;SHT31;56185;48.526;9.044;2023-02-28T02:45:22;-0.91;64.49
69084;SHT31;56185;48.526;9.044;2023-02-28T02:47:48;-0.93;64.77
69084;SHT31;56185;48.526;9.044;2023-02-28T02:50:21;-0.92;64.54
69084;SHT31;56185;48.526;9.044;2023-02-28T02:52:52;-0.95;64.60
69084;SHT31;56185;48.526;9.044;2023-02-28T02:55:19;-0.93;64.65
69084;SHT31;56185;48.526;9.044;2023-02-28T02:57:49;-0.86;64.91
69084;SHT31;56185;48.526;9.044;2023-02-28T03:00:18;-0.93;64.92
69084;SHT31;56185;48.526;9.044;2023-02-28T03:02:46;-0.95;65.10
69084;SHT31;56185;48.526;9.044;2023-02-28T03:05:19;-0.96;65.35
69084;SHT31;56185;48.526;9.044;2023-02-28T03:07:45;-1.00;65.27
69084;SHT31;56185;48.526;9.044;2023-02-28T03:10:29;-0.99;65.51
69084;SHT31;56185;48.526;9.044;2023-02-28T03:13:30;-1.07;66.50
69084;SHT31;56185;48.526;9.044;2023-02-28T03:24:08;-0.92;66.07
69084;SHT31;56185;48.526;9.044;2023-02-28T03:26:39;-0.97;66.08
69084;SHT31;56185;48.526;9.044;2023-02-28T03:29:17;-0.92;66.50
69084;SHT31;56185;48.526;9.044;2023-02-28T03:31:53;-0.91;66.94
69084;SHT31;56185;48.526;9.044;2023-02-28T03:34:24;-0.95;66.14
69084;SHT31;56185;48.526;9.044;2023-02-28T03:36:55;-0.93;66.06
69084;SHT31;56185;48.526;9.044;2023-02-28T03:39:35;-0.88;66.52
69084;SHT31;56185;48.526;9.044;2023-02-28T03:42:06;-0.96;66.48
69084;SHT31;56185;48.526;9.044;2023-02-28T03:47:12;-0.93;66.54
69084;SHT31;56185;48.526;9.044;2023-02-28T03:49:52;-0.89;66.49
69084;SHT31;56185;48.526;9.044;2023-02-28T03:52:23;-0.83;66.94
69084;SHT31;56185;48.526;9.044;2023-02-28T03:54:56;-0.83;67.00
69084;SHT31;56185;48.526;9.044;2023-02-28T03:57:34;-0.82;66.84
69084;SHT31;56185;48.526;9.044;2023-02-28T04:00:27;-0.79;66.83
69084;SHT31;56185;48.526;9.044;2023-02-28T04:02:53;-0.73;66.58
69084;SHT31;56185;48.526;9.044;2023-02-28T04:05:22;-0.72;66.46
69084;SHT31;56185;48.526;9.044;2023-02-28T04:07:47;-0.85;67.21
69084;SHT31;56185;48.526;9.044;2023-02-28T04:10:13;-0.79;67.21
69084;SHT31;56185;48.526;9.044;2023-02-28T04:12:39;-0.72;66.70
69084;SHT31;56185;48.526;9.044;2023-02-28T04:15:05;-0.75;67.01
69084;SHT31;56185;48.526;9.044;2023-02-28T04:17:30;-0.72;67.33
69084;SHT31;56185;48.526;9.044;2023-02-28T04:19:56;-0.66;66.82
69084;SHT31;56185;48.526;9.044;2023-02-28T04:22:21;-0.66;66.92
69084;SHT31;56185;48.526;9.044;2023-02-28T04:24:46;-0.65;66.98
69084;SHT31;56185;48.526;9.044;2023-02-28T04:27:11;-0.66;66.81
69084;SHT31;56185;48.526;9.044;2023-02-28T04:29:37;-0.57;66.65
69084;SHT31;56185;48.526;9.044;2023-02-28T04:32:02;-0.57;66.84
69084;SHT31;56185;48.526;9.044;2023-02-28T04:34:30;-0.73;67.38
69084;SHT31;56185;48.526;9.044;2023-02-28T04:36:56;-0.82;67.91
69084;SHT31;56185;48.526;9.044;2023-02-28T04:39:23;-0.78;67.72
69084;SHT31;56185;48.526;9.044;2023-02-28T04:41:48;-0.82;68.02
69084;SHT31;56185;48.526;9.044;2023-02-28T04:44:14;-0.76;68.06
69084;SHT31;56185;48.526;9.044;2023-02-28T04:46:40;-0.79;69.23
69084;SHT31;56185;48.526;9.044;2023-02-28T04:49:06;-0.68;68.03
69084;SHT31;56185;48.526;9.044;2023-02-28T04:51:31;-0.68;68.00
69084;SHT31;56185;48.526;9.044;2023-02-28T04:53:56;-0.68;68.88
69084;SHT31;56185;48.526;9.044;2023-02-28T04:56:22;-0.73;68.38
69084;SHT31;56185;48.526;9.044;2023-02-28T04:58:48;-0.75;68.87
69084;SHT31;56185;48.526;9.044;2023-02-28T05:01:21;-0.78;69.05
69084;SHT31;56185;48.526;9.044;2023-02-28T05:03:47;-0.81;69.70
69084;SHT31;56185;48.526;9.044;2023-02-28T05:06:13;-0.75;70.17
69084;SHT31;56185;48.526;9.044;2023-02-28T05:08:38;-0.71;69.81
69084;SHT31;56185;48.526;9.044;2023-02-28T05:11:05;-0.65;69.39
69084;SHT31;56185;48.526;9.044;2023-02-28T05:13:31;-0.66;69.72
69084;SHT31;56185;48.526;9.044;2023-02-28T05:15:56;-0.81;70.09
69084;SHT31;56185;48.526;9.044;2023-02-28T05:18:21;-0.71;70.68
69084;SHT31;56185;48.526;9.044;2023-02-28T05:20:47;-0.78;70.27
69084;SHT31;56185;48.526;9.044;2023-02-28T05:23:13;-0.83;70.95
69084;SHT31;56185;48.526;9.044;2023-02-28T05:25:39;-0.73;71.13
69084;SHT31;56185;48.526;9.044;2023-02-28T05:28:05;-0.72;70.33
69084;SHT31;56185;48.526;9.044;2023-02-28T05:30:32;-0.65;70.95
69084;SHT31;56185;48.526;9.044;2023-02-28T05:32:58;-0.85;71.11
69084;SHT31;56185;48.526;9.044;2023-02-28T05:35:24;-0.66;71.03
69084;SHT31;56185;48.526;9.044;2023-02-28T05:37:49;-0.68;71.68
69084;SHT31;56185;48.526;9.044;2023-02-28T05:40:15;-0.72;72.63
69084;SHT31;56185;48.526;9.044;2023-02-28T05:42:40;-0.78;72.12
69084;SHT31;56185;48.526;9.044;2023-02-28T05:45:07;-0.83;71.81
69084;SHT31;56185;48.526;9.044;2023-02-28T05:47:32;-0.85;71.99
69084;SHT31;56185;48.526;9.044;2023-02-28T05:49:57;-0.75;71.59
69084;SHT31;56185;48.526;9.044;2023-02-28T05:52:23;-0.83;71.63
69084;SHT31;56185;48.526;9.044;2023-02-28T05:54:48;-0.93;72.15
69084;SHT31;56185;48.526;9.044;2023-02-28T05:57:14;-0.85;72.26
69084;SHT31;56185;48.526;9.044;2023-02-28T05:59:40;-0.83;72.22
69084;SHT31;56185;48.526;9.044;2023-02-28T06:02:06;-0.82;71.82
69084;SHT31;56185;48.526;9.044;2023-02-28T06:04:34;-0.92;72.21
69084;SHT31;56185;48.526;9.044;2023-02-28T06:06:59;-0.83;72.17
69084;SHT31;56185;48.526;9.044;2023-02-28T06:09:24;-0.76;72.24
69084;SHT31;56185;48.526;9.044;2023-02-28T06:11:50;-0.81;72.32
69084;SHT31;56185;48.526;9.044;2023-02-28T06:14:17;-0.69;71.84
69084;SHT31;56185;48.526;9.044;2023-02-28T06:16:42;-0.68;72.02
69084;SHT31;56185;48.526;9.044;2023-02-28T06:19:09;-0.75;72.27
69084;SHT31;56185;48.526;9.044;2023-02-28T06:21:34;-0.81;71.85
69084;SHT31;56185;48.526;9.044;2023-02-28T06:23:59;-0.82;72.16
69084;SHT31;56185;48.526;9.044;2023-02-28T06:26:25;-0.82;71.66
69084;SHT31;56185;48.526;9.044;2023-02-28T06:28:50;-0.72;71.50
69084;SHT31;56185;48.526;9.044;2023-02-28T06:31:17;-0.65;71.10
69084;SHT31;56185;48.526;9.044;2023-02-28T06:33:44;-0.71;71.32
69084;SHT31;56185;48.526;9.044;2023-02-28T06:36:10;-0.76;71.47
69084;SHT31;56185;48.526;9.044;2023-02-28T06:38:36;-0.78;71.63
69084;SHT31;56185;48.526;9.044;2023-02-28T06:41:02;-0.66;70.80
69084;SHT31;56185;48.526;9.044;2023-02-28T06:43:30;-0.73;70.42
69084;SHT31;56185;48.526;9.044;2023-02-28T06:45:57;-0.78;70.46
69084;SHT31;56185;48.526;9.044;2023-02-28T06:48:23;-0.72;71.00
69084;SHT31;56185;48.526;9.044;2023-02-28T06:50:49;-0.85;70.26
69084;SHT31;56185;48.526;9.044;2023-02-28T06:53:14;-0.71;70.23
69084;SHT31;56185;48.526;9.044;2023-02-28T06:55:39;-0.57;69.97
69084;SHT31;56185;48.526;9.044;2023-02-28T06:58:05;-0.73;69.89
69084;SHT31;56185;48.526;9.044;2023-02-28T07:00:31;-0.64;69.53
69084;SHT31;56185;48.526;9.044;2023-02-28T07:02:56;-0.66;69.43
69084;SHT31;56185;48.526;9.044;2023-02-28T07:05:21;-0.66;69.56
69084;SHT31;56185;48.526;9.044;2023-02-28T07:07:46;-0.66;69.66
69084;SHT31;56185;48.526;9.044;2023-02-28T07:10:12;-0.55;69.71
69084;SHT31;56185;48.526;9.044;2023-02-28T07:12:38;-0.44;68.55
69084;SHT31;56185;48.526;9.044;2023-02-28T07:15:04;-0.48;68.69
69084;SHT31;56185;48.526;9.044;2023-02-28T07:17:30;-0.45;68.65
69084;SHT31;56185;48.526;9.044;2023-02-28T07:19:55;-0.40;69.02
69084;SHT31;56185;48.526;9.044;2023-02-28T07:22:20;-0.38;68.47
69084;SHT31;56185;48.526;9.044;2023-02-28T07:24:45;-0.35;68.57
69084;SHT31;56185;48.526;9.044;2023-02-28T07:27:11;-0.32;68.33
69084;SHT31;56185;48.526;9.044;2023-02-28T07:29:36;-0.21;68.09
69084;SHT31;56185;48.526;9.044;2023-02-28T07:32:01;-0.37;68.17
69084;SHT31;56185;48.526;9.044;2023-02-28T07:34:26;-0.38;67.90
69084;SHT31;56185;48.526;9.044;2023-02-28T07:36:53;-0.27;68.32
69084;SHT31;56185;48.526;9.044;2023-02-28T07:39:19;-0.38;68.05
69084;SHT31;56185;48.526;9.044;2023-02-28T07:41:44;-0.25;68.03
69084;SHT31;56185;48.526;9.044;2023-02-28T07:44:10;-0.27;67.48
69084;SHT31;56185;48.526;9.044;2023-02-28T07:46:36;-0.20;67.70
69084;SHT31;56185;48.526;9.044;2023-02-28T07:49:01;-0.31;67.73
69084;SHT31;56185;48.526;9.044;2023-02-28T07:51:26;-0.27;68.10
69084;SHT31;56185;48.526;9.044;2023-02-28T07:53:51;-0.15;67.07
69084;SHT31;56185;48.526;9.044;2023-02-28T07:56:17;-0.21;67.53
69084;SHT31;56185;48.526;9.044;2023-02-28T07:58:42;-0.14;67.16
69084;SHT31;56185;48.526;9.044;2023-02-28T08:01:09;-0.10;66.92
69084;SHT31;56185;48.526;9.044;2023-02-28T08:03:35;-0.14;67.03
69084;SHT31;56185;48.526;9.044;2023-02-28T08:06:01;-0.18;67.29
69084;SHT31;56185;48.526;9.044;2023-02-28T08:08:26;-0.14;67.18
69084;SHT31;56185;48.526;9.044;2023-02-28T08:10:51;-0.02;67.39
69084;SHT31;56185;48.526;9.044;2023-02-28T08:13:17;0.00;66.43
69084;SHT31;56185;48.526;9.044;2023-02-28T08:15:42;0.04;67.69
69084;SHT31;56185;48.526;9.044;2023-02-28T08:18:07;-0.03;66.42
69084;SHT31;56185;48.526;9.044;2023-02-28T08:20:32;0.06;66.47
69084;SHT31;56185;48.526;9.044;2023-02-28T08:22:58;0.10;66.48
69084;SHT31;56185;48.526;9.044;2023-02-28T08:25:23;0.04;66.47
69084;SHT31;56185;48.526;9.044;2023-02-28T08:27:51;0.13;66.86
69084;SHT31;56185;48.526;9.044;2023-02-28T08:30:16;0.07;66.62
69084;SHT31;56185;48.526;9.044;2023-02-28T08:32:41;0.10;66.45
69084;SHT31;56185;48.526;9.044;2023-02-28T08:35:07;0.01;66.84
69084;SHT31;56185;48.526;9.044;2023-02-28T08:37:32;0.18;66.60
69084;SHT31;56185;48.526;9.044;2023-02-28T08:39:58;0.20;66.59
69084;SHT31;56185;48.526;9.044;2023-02-28T08:42:23;0.35;65.91
69084;SHT31;56185;48.526;9.044;2023-02-28T08:44:49;0.34;65.77
69084;SHT31;56185;48.526;9.044;2023-02-28T08:47:14;0.35;66.18
69084;SHT31;56185;48.526;9.044;2023-02-28T08:49:39;0.31;65.49
69084;SHT31;56185;48.526;9.044;2023-02-28T08:52:05;0.15;66.07
69084;SHT31;56185;48.526;9.044;2023-02-28T08:54:30;0.25;65.24
69084;SHT31;56185;48.526;9.044;2023-02-28T08:56:55;0.13;65.18
69084;SHT31;56185;48.526;9.044;2023-02-28T08:59:20;0.11;65.14
69084;SHT31;56185;48.526;9.044;2023-02-28T09:01:46;0.17;65.59
69084;SHT31;56185;48.526;9.044;2023-02-28T09:04:11;0.18;64.52
69084;SHT31;56185;48.526;9.044;2023-02-28T09:06:36;0.29;65.12
69084;SHT31;56185;48.526;9.044;2023-02-28T09:09:02;0.35;64.58
69084;SHT31;56185;48.526;9.044;2023-02-28T09:11:28;0.45;64.53
69084;SHT31;56185;48.526;9.044;2023-02-28T09:13:53;0.61;63.88
69084;SHT31;56185;48.526;9.044;2023-02-28T09:16:19;0.65;63.97
69084;SHT31;56185;48.526;9.044;2023-02-28T09:18:44;0.62;63.89
69084;SHT31;56185;48.526;9.044;2023-02-28T09:21:12;0.65;63.81
69084;SHT31;56185;48.526;9.044;2023-02-28T09:23:37;0.72;63.51
69084;SHT31;56185;48.526;9.044;2023-02-28T09:26:04;0.57;62.76
69084;SHT31;56185;48.526;9.044;2023-02-28T09:28:29;0.57;63.26
69084;SHT31;56185;48.526;9.044;2023-02-28T09:30:55;0.83;63.36
69084;SHT31;56185;48.526;9.044;2023-02-28T09:33:21;0.87;62.94
69084;SHT31;56185;48.526;9.044;2023-02-28T09:35:48;0.97;63.33
69084;SHT31;56185;48.526;9.044;2023-02-28T09:38:13;1.06;62.82
69084;SHT31;56185;48.526;9.044;2023-02-28T09:40:53;1.12;62.30
69084;SHT31;56185;48.526;9.044;2023-02-28T09:43:22;1.10;62.65
69084;SHT31;56185;48.526;9.044;2023-02-28T09:48:33;1.22;61.93
69084;SHT31;56185;48.526;9.044;2023-02-28T09:51:08;1.23;62.08
69084;SHT31;56185;48.526;9.044;2023-02-28T09:53:36;1.07;61.39
69084;SHT31;56185;48.526;9.044;2023-02-28T09:56:38;1.31;61.31
69084;SHT31;56185;48.526;9.044;2023-02-28T09:59:30;1.38;61.27
69084;SHT31;56185;48.526;9.044;2023-02-28T10:04:58;1.36;60.23
69084;SHT31;56185;48.526;9.044;2023-02-28T10:10:36;1.52;60.86
69084;SHT31;56185;48.526;9.044;2023-02-28T10:13:05;1.62;60.84
69084;SHT31;56185;48.526;9.044;2023-02-28T10:15:33;1.72;61.45
69084;SHT31;56185;48.526;9.044;2023-02-28T10:18:03;1.64;59.77
69084;SHT31;56185;48.526;9.044;2023-02-28T10:20:33;1.48;60.83
69084;SHT31;56185;48.526;9.044;2023-02-28T10:23:02;1.54;60.57
69084;SHT31;56185;48.526;9.044;2023-02-28T10:25:29;1.65;59.47
69084;SHT31;56185;48.526;9.044;2023-02-28T10:28:09;1.69;59.87
69084;SHT31;56185;48.526;9.044;2023-02-28T10:30:37;1.82;59.57
69084;SHT31;56185;48.526;9.044;2023-02-28T10:33:04;1.74;59.35
69084;SHT31;56185;48.526;9.044;2023-02-28T10:35:29;1.85;60.66
69084;SHT31;56185;48.526;9.044;2023-02-28T10:37:57;1.79;59.74
69084;SHT31;56185;48.526;9.044;2023-02-28T10:43:03;1.95;59.80
69084;SHT31;56185;48.526;9.044;2023-02-28T10:45:33;2.01;59.79
69084;SHT31;56185;48.526;9.044;2023-02-28T10:50:45;2.17;59.35
69084;SHT31;56185;48.526;9.044;2023-02-28T10:53:30;2.32;58.95
69084;SHT31;56185;48.526;9.044;2023-02-28T10:59:26;2.41;58.06
69084;SHT31;56185;48.526;9.044;2023-02-28T11:01:45;2.40;58.10
69084;SHT31;56185;48.526;9.044;2023-02-28T11:07:02;2.47;57.44
69084;SHT31;56185;48.526;9.044;2023-02-28T11:09:29;2.43;58.52
69084;SHT31;56185;48.526;9.044;2023-02-28T11:11:55;2.38;58.11
69084;SHT31;56185;48.526;9.044;2023-02-28T11:14:27;2.43;57.23
69084;SHT31;56185;48.526;9.044;2023-02-28T11:16:54;2.60;57.99
69084;SHT31;56185;48.526;9.044;2023-02-28T11:19:26;2.51;57.77
69084;SHT31;56185;48.526;9.044;2023-02-28T11:22:19;2.50;57.14
69084;SHT31;56185;48.526;9.044;2023-02-28T11:24:48;2.53;57.64
69084;SHT31;56185;48.526;9.044;2023-02-28T11:29:58;2.53;56.87
69084;SHT31;56185;48.526;9.044;2023-02-28T11:32:28;2.58;56.78
69084;SHT31;56185;48.526;9.044;2023-02-28T11:35:15;2.70;57.18
69084;SHT31;56185;48.526;9.044;2023-02-28T11:37:42;2.81;56.78
69084;SHT31;56185;48.526;9.044;2023-02-28T11:40:18;2.98;56.93
69084;SHT31;56185;48.526;9.044;2023-02-28T11:43:00;2.99;56.60
69084;SHT31;56185;48.526;9.044;2023-02-28T11:45:39;2.85;56.01
69084;SHT31;56185;48.526;9.044;2023-02-28T11:48:27;2.95;56.53
69084;SHT31;56185;48.526;9.044;2023-02-28T11:56:53;3.05;56.36
69084;SHT31;56185;48.526;9.044;2023-02-28T12:08:05;3.33;55.06
69084;SHT31;56185;48.526;9.044;2023-02-28T12:10:53;3.19;54.29
69084;SHT31;56185;48.526;9.044;2023-02-28T12:16:27;3.46;54.89
69084;SHT31;56185;48.526;9.044;2023-02-28T12:19:05;3.53;54.91
69084;SHT31;56185;48.526;9.044;2023-02-28T12:21:54;3.69;55.07
69084;SHT31;56185;48.526;9.044;2023-02-28T12:27:13;3.70;53.83
69084;SHT31;56185;48.526;9.044;2023-02-28T12:30:00;3.52;54.70
69084;SHT31;56185;48.526;9.044;2023-02-28T12:32:34;3.73;55.28
69084;SHT31;56185;48.526;9.044;2023-02-28T12:35:14;3.85;54.75
69084;SHT31;56185;48.526;9.044;2023-02-28T12:37:44;3.83;54.33
69084;SHT31;56185;48.526;9.044;2023-02-28T12:40:14;3.71;53.93
69084;SHT31;56185;48.526;9.044;2023-02-28T12:42:48;3.76;54.62
69084;SHT31;56185;48.526;9.044;2023-02-28T12:45:42;3.87;54.54
69084;SHT31;56185;48.526;9.044;2023-02-28T12:48:14;3.83;53.56
69084;SHT31;56185;48.526;9.044;2023-02-28T12:50:43;3.94;53.83
69084;SHT31;56185;48.526;9.044;2023-02-28T12:53:28;4.19;53.94
69084;SHT31;56185;48.526;9.044;2023-02-28T13:09:17;5.27;50.11
69084;SHT31;56185;48.526;9.044;2023-02-28T13:11:45;5.39;49.85
69084;SHT31;56185;48.526;9.044;2023-02-28T13:16:56;5.42;49.74
69084;SHT31;56185;48.526;9.044;2023-02-28T13:19:22;5.35;49.79
69084;SHT31;56185;48.526;9.044;2023-02-28T13:21:50;5.25;50.09
69084;SHT31;56185;48.526;9.044;2023-02-28T13:27:37;4.96;51.25
69084;SHT31;56185;48.526;9.044;2023-02-28T13:38:51;5.63;50.78
69084;SHT31;56185;48.526;9.044;2023-02-28T13:46:32;6.07;49.46
69084;SHT31;56185;48.526;9.044;2023-02-28T13:49:27;6.07;49.64
69084;SHT31;56185;48.526;9.044;2023-02-28T13:51:54;5.82;49.00
69084;SHT31;56185;48.526;9.044;2023-02-28T13:57:04;5.39;49.71
69084;SHT31;56185;48.526;9.044;2023-02-28T14:02:36;5.82;49.60
69084;SHT31;56185;48.526;9.044;2023-02-28T14:05:14;6.03;49.28
69084;SHT31;56185;48.526;9.044;2023-02-28T14:07:51;6.14;49.96
69084;SHT31;56185;48.526;9.044;2023-02-28T14:10:31;6.17;48.66
69084;SHT31;56185;48.526;9.044;2023-02-28T14:17:55;6.21;48.06
69084;SHT31;56185;48.526;9.044;2023-02-28T14:20:22;6.00;48.01
69084;SHT31;56185;48.526;9.044;2023-02-28T14:23:10;6.31;49.22
69084;SHT31;56185;48.526;9.044;2023-02-28T14:25:55;6.23;48.52
69084;SHT31;56185;48.526;9.044;2023-02-28T14:31:24;6.52;48.48
69084;SHT31;56185;48.526;9.044;2023-02-28T14:36:44;6.54;47.91
69084;SHT31;56185;48.526;9.044;2023-02-28T14:39:16;6.62;47.01
69084;SHT31;56185;48.526;9.044;2023-02-28T14:41:45;6.61;47.85
69084;SHT31;56185;48.526;9.044;2023-02-28T14:44:19;6.75;47.96
69084;SHT31;56185;48.526;9.044;2023-02-28T14:46:48;6.68;47.16
69084;SHT31;56185;48.526;9.044;2023-02-28T14:49:20;6.46;48.04
69084;SHT31;56185;48.526;9.044;2023-02-28T14:51:48;6.67;48.28
69084;SHT31;56185;48.526;9.044;2023-02-28T14:54:16;6.78;47.81
69084;SHT31;56185;48.526;9.044;2023-02-28T14:56:43;6.54;47.41
69084;SHT31;56185;48.526;9.044;2023-02-28T14:59:27;6.61;47.73
69084;SHT31;56185;48.526;9.044;2023-02-28T15:02:25;6.78;47.08
69084;SHT31;56185;48.526;9.044;2023-02-28T15:07:39;6.78;47.24
69084;SHT31;56185;48.526;9.044;2023-02-28T15:10:13;6.67;47.24
69084;SHT31;56185;48.526;9.044;2023-02-28T15:12:40;6.64;46.86
69084;SHT31;56185;48.526;9.044;2023-02-28T15:15:19;6.68;47.46
69084;SHT31;56185;48.526;9.044;2023-02-28T15:17:50;6.82;47.87
69084;SHT31;56185;48.526;9.044;2023-02-28T15:20:18;6.86;48.42
69084;SHT31;56185;48.526;9.044;2023-02-28T15:23:02;6.81;47.39
69084;SHT31;56185;48.526;9.044;2023-02-28T15:25:32;6.78;47.59
69084;SHT31;56185;48.526;9.044;2023-02-28T15:27:57;6.33;46.84
69084;SHT31;56185;48.526;9.044;2023-02-28T15:30:27;6.40;47.30
69084;SHT31;56185;48.526;9.044;2023-02-28T15:33:22;6.34;48.04
69084;SHT31;56185;48.526;9.044;2023-02-28T15:36:03;6.49;48.28
69084;SHT31;56185;48.526;9.044;2023-02-28T15:38:28;6.55;48.00
69084;SHT31;56185;48.526;9.044;2023-02-28T15:40:55;6.55;48.07
69084;SHT31;56185;48.526;9.044;2023-02-28T15:43:32;6.52;47.61
69084;SHT31;56185;48.526;9.044;2023-02-28T15:46:00;6.42;47.72
69084;SHT31;56185;48.526;9.044;2023-02-28T15:48:30;6.09;47.94
69084;SHT31;56185;48.526;9.044;2023-02-28T15:51:18;6.21;48.43
69084;SHT31;56185;48.526;9.044;2023-02-28T15:54:08;6.16;48.37
69084;SHT31;56185;48.526;9.044;2023-02-28T15:56:38;5.97;48.26
69084;SHT31;56185;48.526;9.044;2023-02-28T15:59:13;6.10;48.68
69084;SHT31;56185;48.526;9.044;2023-02-28T16:01:40;6.27;48.30
69084;SHT31;56185;48.526;9.044;2023-02-28T16:04:16;6.23;48.82
69084;SHT31;56185;48.526;9.044;2023-02-28T16:06:43;6.31;47.84
69084;SHT31;56185;48.526;9.044;2023-02-28T16:09:16;6.14;48.85
69084;SHT31;56185;48.526;9.044;2023-02-28T16:11:48;6.09;48.61
69084;SHT31;56185;48.526;9.044;2023-02-28T16:14:19;6.14;48.86
69084;SHT31;56185;48.526;9.044;2023-02-28T16:16:47;5.89;48.86
69084;SHT31;56185;48.526;9.044;2023-02-28T16:19:13;5.80;50.03
69084;SHT31;56185;48.526;9.044;2023-02-28T16:21:38;5.82;50.24
69084;SHT31;56185;48.526;9.044;2023-02-28T16:24:04;5.85;49.75
69084;SHT31;56185;48.526;9.044;2023-02-28T16:26:29;5.69;50.98
69084;SHT31;56185;48.526;9.044;2023-02-28T16:28:55;5.52;49.80
69084;SHT31;56185;48.526;9.044;2023-02-28T16:31:20;5.46;49.99
69084;SHT31;56185;48.526;9.044;2023-02-28T16:33:46;5.23;50.88
69084;SHT31;56185;48.526;9.044;2023-02-28T16:36:20;5.27;50.81
69084;SHT31;56185;48.526;9.044;2023-02-28T16:38:46;5.25;50.81
69084;SHT31;56185;48.526;9.044;2023-02-28T16:41:17;5.17;50.91
69084;SHT31;56185;48.526;9.044;2023-02-28T16:43:44;5.14;51.16
69084;SHT31;56185;48.526;9.044;2023-02-28T16:46:11;5.01;51.04
69084;SHT31;56185;48.526;9.044;2023-02-28T16:48:36;5.00;51.10
69084;SHT31;56185;48.526;9.044;2023-02-28T16:51:01;5.03;51.44
69084;SHT31;56185;48.526;9.044;2023-02-28T16:53:27;5.01;51.62
69084;SHT31;56185;48.526;9.044;2023-02-28T16:55:52;4.98;51.62
69084;SHT31;56185;48.526;9.044;2023-02-28T16:58:17;4.97;51.81
69084;SHT31;56185;48.526;9.044;2023-02-28T17:00:43;4.93;51.92
69084;SHT31;56185;48.526;9.044;2023-02-28T17:03:20;4.83;51.98
69084;SHT31;56185;48.526;9.044;2023-02-28T17:05:47;4.84;52.00
69084;SHT31;56185;48.526;9.044;2023-02-28T17:08:12;4.74;52.29
69084;SHT31;56185;48.526;9.044;2023-02-28T17:10:37;4.74;52.59
69084;SHT31;56185;48.526;9.044;2023-02-28T17:13:02;4.67;52.57
69084;SHT31;56185;48.526;9.044;2023-02-28T17:15:28;4.62;52.66
69084;SHT31;56185;48.526;9.044;2023-02-28T17:17:53;4.60;53.04
69084;SHT31;56185;48.526;9.044;2023-02-28T17:20:22;4.65;52.91
69084;SHT31;56185;48.526;9.044;2023-02-28T17:22:47;4.55;52.98
69084;SHT31;56185;48.526;9.044;2023-02-28T17:25:12;4.49;52.98
69084;SHT31;56185;48.526;9.044;2023-02-28T17:27:38;4.42;53.26
69084;SHT31;56185;48.526;9.044;2023-02-28T17:30:13;4.44;53.37
69084;SHT31;56185;48.526;9.044;2023-02-28T17:32:40;4.38;53.58
69084;SHT31;56185;48.526;9.044;2023-02-28T17:35:05;4.36;53.66
69084;SHT31;56185;48.526;9.044;2023-02-28T17:37:31;4.34;53.64
69084;SHT31;56185;48.526;9.044;2023-02-28T17:39:56;4.21;53.92
69084;SHT31;56185;48.526;9.044;2023-02-28T17:42:21;4.19;54.17
69084;SHT31;56185;48.526;9.044;2023-02-28T17:44:47;4.15;54.39
69084;SHT31;56185;48.526;9.044;2023-02-28T17:47:12;4.08;55.03
69084;SHT31;56185;48.526;9.044;2023-02-28T17:49:40;4.05;54.49
69084;SHT31;56185;48.526;9.044;2023-02-28T17:52:05;4.05;54.59
69084;SHT31;56185;48.526;9.044;2023-02-28T17:54:31;4.04;54.64
69084;SHT31;56185;48.526;9.044;2023-02-28T17:56:56;4.01;54.94
69084;SHT31;56185;48.526;9.044;2023-02-28T17:59:21;3.95;55.33